Time;durP1;ratioP1;P1;durP2;ratioP2;P2;SDS_P1;SDS_P2;PMS_P1;PMS_P2;Temp;Humidity;BMP_temperature;BMP_pressure;BME280_temperature;BME280_humidity;BME280_pressure;Samples;Min_cycle;Max_cycle;Signal;HPM_P1;HPM_P2
2022/03/23 00:00:46;;;;;;;28.02;16.35;;;8.70;71.50;;;;;;5070922;28;20024;-65
2022/03/23 00:03:15;;;;;;;27.85;16.63;;;8.70;72.00;;;;;;5052921;28;20024;-65
2022/03/23 00:05:41;;;;;;;28.17;18.05;;;8.70;72.60;;;;;;5070283;28;20029;-65
2022/03/23 00:08:10;;;;;;;28.98;16.17;;;8.60;72.10;;;;;;5070387;28;20086;-63
2022/03/23 00:10:36;;;;;;;28.83;16.35;;;8.60;71.80;;;;;;5070275;28;20024;-62
2022/03/23 00:13:04;;;;;;;29.38;17.65;;;8.60;72.40;;;;;;5071051;28;20033;-65
2022/03/23 00:15:30;;;;;;;28.75;16.73;;;8.60;72.80;;;;;;5071521;28;20032;-64
2022/03/23 00:17:57;;;;;;;32.40;18.10;;;8.60;72.20;;;;;;5053594;28;20032;-65
2022/03/23 00:20:24;;;;;;;27.52;15.77;;;8.60;71.60;;;;;;5070908;28;20680;-61
2022/03/23 00:22:51;;;;;;;30.80;18.63;;;8.50;71.20;;;;;;5070586;28;20031;-64
2022/03/23 00:25:17;;;;;;;26.73;18.27;;;8.50;71.50;;;;;;5070402;28;20034;-64
2022/03/23 00:27:42;;;;;;;28.55;17.10;;;8.50;72.20;;;;;;5070393;28;20484;-64
2022/03/23 00:30:10;;;;;;;27.73;16.58;;;8.50;72.30;;;;;;5070122;28;20040;-65
2022/03/23 00:32:35;;;;;;;27.35;17.23;;;8.40;72.70;;;;;;5070251;28;20483;-64
2022/03/23 00:35:02;;;;;;;28.70;17.35;;;8.40;73.10;;;;;;5054372;28;20033;-65
2022/03/23 00:37:28;;;;;;;32.15;19.15;;;8.40;72.70;;;;;;5033962;28;20025;-63
2022/03/23 00:39:53;;;;;;;28.00;17.08;;;8.30;72.20;;;;;;5052478;28;20547;-64
2022/03/23 00:42:19;;;;;;;29.90;17.85;;;8.30;72.70;;;;;;5035610;28;20044;-65
2022/03/23 00:44:45;;;;;;;29.08;17.20;;;8.30;73.10;;;;;;5053154;28;20028;-65
2022/03/23 00:47:10;;;;;;;30.00;17.30;;;8.20;73.70;;;;;;5053135;28;20032;-65
2022/03/23 00:49:37;;;;;;;28.45;18.13;;;8.20;73.30;;;;;;5052784;28;20020;-64
2022/03/23 00:52:05;;;;;;;27.70;17.00;;;8.10;74.20;;;;;;5052998;28;20024;-62
2022/03/23 00:54:34;;;;;;;28.00;17.15;;;8.10;74.20;;;;;;5034974;28;20607;-67
2022/03/23 00:57:01;;;;;;;;;;;8.10;73.60;;;;;;5035052;28;20040;-66
2022/03/23 00:59:26;;;;;;;30.75;18.13;;;8.10;74.60;;;;;;5052784;28;19912;-65
2022/03/23 01:01:52;;;;;;;30.20;17.60;;;8.10;75.10;;;;;;5052785;28;20025;-66
2022/03/23 01:04:18;;;;;;;28.95;18.15;;;8.00;74.60;;;;;;5052554;28;20025;-65
2022/03/23 01:06:44;;;;;;;33.10;18.20;;;8.00;74.60;;;;;;5034611;28;20083;-66
2022/03/23 01:09:09;;;;;;;29.17;18.08;;;8.00;73.30;;;;;;5053773;28;20497;-65
2022/03/23 01:11:37;;;;;;;33.33;18.08;;;7.90;73.50;;;;;;5052415;28;20477;-64
2022/03/23 01:14:03;;;;;;;28.70;17.70;;;7.90;74.90;;;;;;5034727;28;20048;-65
2022/03/23 01:16:29;;;;;;;30.02;17.48;;;7.90;75.40;;;;;;5052557;28;20099;-65
2022/03/23 01:18:54;;;;;;;33.58;19.33;;;7.80;75.70;;;;;;5052563;28;20100;-66
2022/03/23 01:21:20;;;;;;;33.25;19.55;;;7.80;75.10;;;;;;5052282;28;20059;-66
2022/03/23 01:23:46;;;;;;;29.40;16.85;;;7.70;74.00;;;;;;5052410;28;20032;-64
2022/03/23 01:26:11;;;;;;;30.15;18.10;;;7.70;74.00;;;;;;5052384;28;20021;-66
2022/03/23 01:28:37;;;;;;;29.67;17.20;;;7.60;74.30;;;;;;5033956;28;20021;-65
2022/03/23 01:31:03;;;;;;;34.83;19.92;;;7.60;74.50;;;;;;5034334;28;20063;-66
2022/03/23 01:33:28;;;;;;;28.38;17.10;;;7.50;74.60;;;;;;5052309;28;20060;-65
2022/03/23 01:35:54;;;;;;;31.77;17.83;;;7.50;76.50;;;;;;5051624;28;20025;-65
2022/03/23 01:38:20;;;;;;;29.55;18.30;;;7.50;77.70;;;;;;5052437;28;20029;-65
2022/03/23 01:40:46;;;;;;;28.67;18.27;;;7.50;77.70;;;;;;5052058;28;20481;-65
2022/03/23 01:43:11;;;;;;;33.70;18.80;;;7.40;77.80;;;;;;5034582;28;20366;-66
2022/03/23 01:45:37;;;;;;;29.90;18.73;;;7.40;77.90;;;;;;5034254;28;20147;-65
2022/03/23 01:48:03;;;;;;;28.52;18.25;;;7.30;78.10;;;;;;5051971;28;20021;-64
2022/03/23 01:50:29;;;;;;;34.22;19.38;;;7.30;78.30;;;;;;5052302;28;20018;-64
2022/03/23 01:52:54;;;;;;;32.38;18.17;;;7.20;78.80;;;;;;5052126;28;20504;-65
2022/03/23 01:55:20;;;;;;;31.42;17.55;;;7.20;79.00;;;;;;5052008;28;20108;-65
2022/03/23 01:57:49;;;;;;;35.20;18.13;;;7.20;79.20;;;;;;5051972;28;20051;-65
2022/03/23 02:00:16;;;;;;;29.17;18.55;;;7.20;79.00;;;;;;5051836;28;20017;-65
2022/03/23 02:02:44;;;;;;;29.73;17.67;;;7.10;78.80;;;;;;5034210;28;20027;-66
2022/03/23 02:05:11;;;;;;;34.85;18.05;;;7.10;78.90;;;;;;5051631;28;20029;-63
2022/03/23 02:07:36;;;;;;;33.10;18.08;;;7.10;78.80;;;;;;5052208;28;20393;-65
2022/03/23 02:10:04;;;;;;;29.85;17.50;;;7.00;79.20;;;;;;5051697;28;20036;-64
2022/03/23 02:12:30;;;;;;;29.65;17.92;;;6.90;79.30;;;;;;5051918;28;20029;-65
2022/03/23 02:14:58;;;;;;;31.05;17.83;;;6.90;79.50;;;;;;5051759;28;20021;-65
2022/03/23 02:17:24;;;;;;;27.93;18.63;;;6.90;80.70;;;;;;5051988;28;20059;-65
2022/03/23 02:19:49;;;;;;;31.60;17.35;;;6.90;80.90;;;;;;5033775;28;20627;-64
2022/03/23 02:22:15;;;;;;;33.42;18.85;;;6.90;81.30;;;;;;5033603;28;20028;-64
2022/03/23 02:24:41;;;;;;;28.45;17.80;;;6.90;81.30;;;;;;5033902;28;20033;-63
2022/03/23 02:27:08;;;;;;;28.80;17.25;;;6.90;81.60;;;;;;5033757;28;20385;-65
2022/03/23 02:29:34;;;;;;;28.20;17.70;;;6.80;81.80;;;;;;5051870;28;20475;-65
2022/03/23 02:32:01;;;;;;;32.75;18.13;;;6.70;81.90;;;;;;5051819;28;20107;-62
2022/03/23 02:34:27;;;;;;;32.38;18.80;;;6.70;81.90;;;;;;5051505;28;20028;-64
2022/03/23 02:36:54;;;;;;;30.45;18.65;;;6.60;81.90;;;;;;5052126;28;20431;-63
2022/03/23 02:39:20;;;;;;;33.03;17.38;;;6.60;82.10;;;;;;5033800;28;20033;-64
2022/03/23 02:41:46;;;;;;;30.50;17.55;;;6.50;82.60;;;;;;5051954;28;20118;-64
2022/03/23 02:44:16;;;;;;;32.03;17.38;;;6.50;82.90;;;;;;5033553;28;20116;-65
2022/03/23 02:46:42;;;;;;;30.73;17.90;;;6.50;83.20;;;;;;5035537;28;20128;-63
2022/03/23 02:49:09;;;;;;;35.05;20.08;;;6.40;83.60;;;;;;5054860;28;20481;-65
2022/03/23 02:51:36;;;;;;;31.17;17.65;;;6.40;84.00;;;;;;5055102;28;20033;-63
2022/03/23 03:02:37;;;;;;;29.98;18.25;;;6.40;83.60;;;;;;5055194;28;20048;-64
2022/03/23 03:05:04;;;;;;;32.60;18.85;;;6.30;84.00;;;;;;5055046;28;20489;-64
2022/03/23 03:10:15;;;;;;;30.75;17.85;;;6.30;84.80;;;;;;5055656;28;20090;-65
2022/03/23 03:12:43;;;;;;;35.58;19.15;;;6.30;85.20;;;;;;5037103;28;20046;-64
2022/03/23 03:15:12;;;;;;;31.73;17.63;;;6.30;85.30;;;;;;5054904;28;20184;-64
2022/03/23 03:17:38;;;;;;;32.42;19.10;;;6.30;85.70;;;;;;5054745;28;20039;-64
2022/03/23 03:20:04;;;;;;;30.27;17.95;;;6.20;86.10;;;;;;5054842;28;20525;-64
2022/03/23 03:22:34;;;;;;;35.63;19.55;;;6.20;86.50;;;;;;5037024;28;20033;-64
2022/03/23 03:25:01;;;;;;;34.58;20.23;;;6.20;86.70;;;;;;5055113;28;20055;-64
2022/03/23 03:27:26;;;;;;;31.90;18.40;;;6.20;86.80;;;;;;5055060;28;20052;-64
2022/03/23 03:29:52;;;;;;;30.88;18.65;;;6.10;86.90;;;;;;5054495;28;20049;-65
2022/03/23 03:35:39;;;;;;;32.17;16.95;;;6.10;87.00;;;;;;5054437;28;20434;-64
2022/03/23 03:38:05;;;;;;;30.05;17.17;;;6.10;87.70;;;;;;5054027;28;20107;-64
2022/03/23 03:40:31;;;;;;;31.10;19.52;;;6.10;87.90;;;;;;5054044;28;20068;-62
2022/03/23 03:42:56;;;;;;;31.92;19.00;;;6.10;87.70;;;;;;5054219;28;20029;-64
2022/03/23 03:45:22;;;;;;;30.83;17.30;;;6.10;87.70;;;;;;5036185;28;20028;-64
2022/03/23 03:47:48;;;;;;;31.80;17.80;;;6.00;87.70;;;;;;5053948;28;20028;-64
2022/03/23 03:50:14;;;;;;;33.47;17.42;;;5.90;87.90;;;;;;5054002;28;20147;-64
2022/03/23 03:52:39;;;;;;;31.05;17.90;;;5.90;88.10;;;;;;5036065;28;20025;-64
2022/03/23 03:55:05;;;;;;;30.95;18.10;;;5.90;88.10;;;;;;5035914;28;20477;-63
2022/03/23 03:57:31;;;;;;;32.15;17.23;;;5.90;88.30;;;;;;5035867;28;20084;-64
2022/03/23 03:59:56;;;;;;;34.35;17.52;;;5.80;87.90;;;;;;5054040;28;20025;-64
2022/03/23 04:02:22;;;;;;;36.40;18.63;;;5.90;88.20;;;;;;5054638;28;20056;-64
2022/03/23 04:04:47;;;;;;;30.55;18.05;;;5.80;88.00;;;;;;5054430;28;20025;-65
2022/03/23 04:07:13;;;;;;;31.75;18.08;;;5.80;88.20;;;;;;5053788;28;20044;-64
2022/03/23 04:09:39;;;;;;;38.97;19.05;;;5.80;88.50;;;;;;5053458;28;20052;-64
2022/03/23 04:12:05;;;;;;;31.45;18.50;;;5.80;88.60;;;;;;5053953;28;20030;-64
2022/03/23 04:14:31;;;;;;;29.70;19.33;;;5.80;89.30;;;;;;5053557;28;20021;-63
2022/03/23 04:16:56;;;;;;;29.85;16.63;;;5.80;90.00;;;;;;5035601;28;20025;-65
2022/03/23 04:19:22;;;;;;;32.05;18.73;;;5.80;90.30;;;;;;5053542;28;20397;-62
2022/03/23 04:21:47;;;;;;;33.08;18.45;;;5.80;90.40;;;;;;5053659;28;20056;-65
2022/03/23 04:24:13;;;;;;;31.15;19.25;;;5.70;90.40;;;;;;5053458;28;20029;-65
2022/03/23 04:26:39;;;;;;;30.77;18.30;;;5.70;90.70;;;;;;5053188;28;20035;-65
2022/03/23 04:29:04;;;;;;;33.95;18.55;;;5.70;90.60;;;;;;5053174;28;20024;-64
2022/03/23 04:31:30;;;;;;;29.75;18.25;;;5.60;90.70;;;;;;5053049;28;20024;-62
2022/03/23 04:33:55;;;;;;;30.17;17.95;;;5.60;90.80;;;;;;5053148;28;20516;-64
2022/03/23 04:36:21;;;;;;;34.30;18.55;;;5.70;90.50;;;;;;5052914;28;20028;-64
2022/03/23 04:38:47;;;;;;;35.97;19.80;;;5.70;90.50;;;;;;5053045;28;20024;-62
2022/03/23 04:41:12;;;;;;;32.45;18.58;;;5.60;90.70;;;;;;5053394;28;20675;-63
2022/03/23 04:43:38;;;;;;;29.27;18.13;;;5.80;90.50;;;;;;5053053;28;20108;-60
2022/03/23 04:46:05;;;;;;;32.88;19.23;;;5.80;90.40;;;;;;5052890;28;20040;-61
2022/03/23 04:48:31;;;;;;;31.30;18.17;;;5.80;90.30;;;;;;5035492;28;20052;-63
2022/03/23 04:50:57;;;;;;;32.95;17.67;;;5.70;90.40;;;;;;5053051;28;20029;-64
2022/03/23 04:53:23;;;;;;;33.13;21.05;;;5.60;90.60;;;;;;5053088;28;20067;-64
2022/03/23 04:55:49;;;;;;;31.92;18.45;;;5.60;90.80;;;;;;5053020;28;20029;-64
2022/03/23 04:58:15;;;;;;;33.40;19.25;;;5.50;90.90;;;;;;5053036;28;20044;-65
2022/03/23 05:00:41;;;;;;;35.42;19.20;;;5.50;91.00;;;;;;5052631;28;20032;-64
2022/03/23 05:03:07;;;;;;;31.20;18.98;;;5.40;91.40;;;;;;5034651;28;20489;-65
2022/03/23 05:05:33;;;;;;;30.33;19.33;;;5.40;91.70;;;;;;5052753;28;20030;-65
2022/03/23 05:07:58;;;;;;;32.20;20.00;;;5.40;92.20;;;;;;5052162;28;20470;-66
2022/03/23 05:10:24;;;;;;;37.83;20.42;;;5.40;92.30;;;;;;5051298;28;20032;-64
2022/03/23 05:12:50;;;;;;;38.58;20.70;;;5.50;92.30;;;;;;5052588;28;20021;-64
2022/03/23 05:15:17;;;;;;;36.13;22.70;;;5.60;92.30;;;;;;5052064;28;20013;-63
2022/03/23 05:17:44;;;;;;;34.83;22.20;;;5.60;92.30;;;;;;5052429;28;20656;-63
2022/03/23 05:20:11;;;;;;;37.15;21.67;;;5.70;92.20;;;;;;5052675;28;20032;-64
2022/03/23 05:22:39;;;;;;;35.72;20.77;;;5.70;92.10;;;;;;5034419;28;20409;-62
2022/03/23 05:25:07;;;;;;;32.47;20.05;;;5.70;91.90;;;;;;5034542;28;20021;-64
2022/03/23 05:27:38;;;;;;;36.45;21.10;;;5.60;92.00;;;;;;5034157;28;20033;-63
2022/03/23 05:30:07;;;;;;;31.67;20.20;;;5.50;92.10;;;;;;5052400;28;20021;-64
2022/03/23 05:32:33;;;;;;;31.50;20.63;;;5.50;92.40;;;;;;5052277;28;20023;-65
2022/03/23 05:34:58;;;;;;;32.70;20.48;;;5.50;92.50;;;;;;5052114;28;20025;-65
2022/03/23 05:37:24;;;;;;;37.85;19.90;;;5.50;92.60;;;;;;5034332;28;20055;-64
2022/03/23 05:39:50;;;;;;;34.10;21.38;;;5.40;92.30;;;;;;5052139;28;20104;-65
2022/03/23 05:42:15;;;;;;;38.70;22.17;;;5.40;92.60;;;;;;5034710;28;20106;-64
2022/03/23 05:44:41;;;;;;;36.63;20.15;;;5.60;94.60;;;;;;5034019;28;20025;-64
2022/03/23 05:47:07;;;;;;;35.13;20.02;;;5.70;95.20;;;;;;5033907;28;20029;-63
2022/03/23 05:49:32;;;;;;;37.85;20.50;;;6.00;94.90;;;;;;5051801;28;20025;-65
2022/03/23 05:51:58;;;;;;;40.47;21.38;;;6.30;93.80;;;;;;5052078;28;20036;-65
2022/03/23 05:54:24;;;;;;;38.85;21.08;;;6.40;93.20;;;;;;5051752;28;20056;-65
2022/03/23 05:56:51;;;;;;;35.70;20.60;;;6.40;91.60;;;;;;5033960;28;20123;-65
2022/03/23 05:59:17;;;;;;;33.55;19.80;;;6.40;90.80;;;;;;5051281;28;20033;-66
2022/03/23 06:01:43;;;;;;;36.25;21.88;;;6.30;90.80;;;;;;5033994;28;20477;-65
2022/03/23 06:04:09;;;;;;;35.22;21.83;;;6.30;90.30;;;;;;5034390;28;20043;-65
2022/03/23 06:06:35;;;;;;;39.97;22.20;;;6.20;90.00;;;;;;5051864;28;20051;-67
2022/03/23 06:09:01;;;;;;;38.15;22.50;;;6.20;90.00;;;;;;5051482;28;20032;-65
2022/03/23 06:11:26;;;;;;;36.20;20.52;;;6.20;90.00;;;;;;5051721;28;20075;-66
2022/03/23 06:13:52;;;;;;;42.80;22.27;;;6.20;90.00;;;;;;5052014;28;20025;-65
2022/03/23 06:16:18;;;;;;;38.75;21.42;;;6.30;89.70;;;;;;5051485;28;20032;-64
2022/03/23 06:18:43;;;;;;;37.58;20.65;;;6.30;90.10;;;;;;5051341;28;20025;-64
2022/03/23 06:21:09;;;;;;;35.20;20.85;;;6.30;90.10;;;;;;5053233;28;20040;-66
2022/03/23 06:23:35;;;;;;;42.53;21.42;;;6.40;89.40;;;;;;5055585;28;20093;-65
2022/03/23 06:26:01;;;;;;;38.42;22.10;;;6.40;89.80;;;;;;5055240;28;20111;-64
2022/03/23 06:28:27;;;;;;;35.55;21.85;;;6.50;87.70;;;;;;5055296;28;20025;-66
2022/03/23 06:30:53;;;;;;;32.15;21.48;;;6.70;86.90;;;;;;5055391;28;20053;-65
2022/03/23 06:33:19;;;;;;;36.38;21.80;;;6.80;85.90;;;;;;5055532;28;20025;-64
2022/03/23 06:35:46;;;;;;;45.80;26.85;;;6.90;83.90;;;;;;5055077;28;20029;-65
2022/03/23 06:38:12;;;;;;;40.25;23.08;;;6.90;84.30;;;;;;5054940;28;20036;-65
2022/03/23 06:40:38;;;;;;;40.78;23.17;;;7.00;83.50;;;;;;5060528;28;20032;-65
2022/03/23 06:43:04;;;;;;;36.90;22.05;;;7.10;83.10;;;;;;5063095;28;20020;-66
2022/03/23 06:45:30;;;;;;;39.85;22.42;;;7.20;82.70;;;;;;5084880;28;20047;-66
2022/03/23 06:47:56;;;;;;;35.25;20.42;;;7.20;82.80;;;;;;5074919;28;20028;-67
2022/03/23 06:50:22;;;;;;;34.83;22.17;;;7.30;81.70;;;;;;5059374;28;20027;-63
2022/03/23 06:52:48;;;;;;;36.92;21.10;;;7.40;81.10;;;;;;5037249;28;20108;-66
2022/03/23 06:55:13;;;;;;;37.63;21.27;;;7.40;81.20;;;;;;5055050;28;20520;-66
2022/03/23 06:57:39;;;;;;;34.25;21.25;;;7.50;81.10;;;;;;5054827;28;20025;-67
2022/03/23 07:00:15;;;;;;;35.92;20.63;;;7.60;80.50;;;;;;5055581;28;20050;-66
2022/03/23 07:02:47;;;;;;;38.00;22.27;;;7.70;80.50;;;;;;5056052;28;20631;-66
2022/03/23 07:05:14;;;;;;;35.92;21.42;;;7.80;79.20;;;;;;5055938;28;20105;-66
2022/03/23 07:09:31;;;;;;;37.25;22.92;;;7.90;78.30;;;;;;5055810;28;20036;-66
2022/03/23 07:10:26;;;;;;;36.38;21.60;;;7.90;78.80;;;;;;5055910;28;20029;-67
2022/03/23 07:12:52;;;;;;;37.45;21.88;;;8.00;78.30;;;;;;5054605;28;20100;-67
2022/03/23 07:15:18;;;;;;;33.53;21.08;;;8.10;78.20;;;;;;5063486;28;20429;-65
2022/03/23 07:17:43;;;;;;;35.30;20.88;;;8.20;78.20;;;;;;5075289;28;20512;-66
2022/03/23 07:20:09;;;;;;;36.60;23.33;;;8.20;78.50;;;;;;5074957;28;20040;-64
2022/03/23 07:22:35;;;;;;;34.88;21.35;;;8.20;78.60;;;;;;5074452;28;20056;-66
2022/03/23 07:25:01;;;;;;;35.45;21.95;;;8.30;78.50;;;;;;5074229;28;20024;-66
2022/03/23 07:27:27;;;;;;;38.00;22.38;;;8.40;78.30;;;;;;5074748;28;20028;-66
2022/03/23 07:29:53;;;;;;;40.35;21.88;;;8.50;77.80;;;;;;5071086;28;20028;-66
2022/03/23 07:32:19;;;;;;;37.58;22.25;;;8.50;78.00;;;;;;5071444;28;20460;-66
2022/03/23 07:34:44;;;;;;;35.00;21.80;;;8.60;78.80;;;;;;5074208;28;20027;-65
2022/03/23 07:37:10;;;;;;;37.85;22.10;;;8.60;79.00;;;;;;5074022;28;20025;-64
2022/03/23 07:39:36;;;;;;;46.00;23.20;;;8.80;79.50;;;;;;5074186;28;20025;-66
2022/03/23 07:42:02;;;;;;;33.83;22.10;;;8.80;78.50;;;;;;5074028;28;20059;-66
2022/03/23 07:44:30;;;;;;;35.55;21.00;;;8.90;78.60;;;;;;5056025;28;20047;-67
2022/03/23 07:46:55;;;;;;;36.10;23.10;;;8.90;78.10;;;;;;5074176;28;20024;-66
2022/03/23 07:49:21;;;;;;;41.25;22.88;;;9.00;78.10;;;;;;5073985;28;20035;-66
2022/03/23 07:51:47;;;;;;;37.25;22.73;;;9.10;77.80;;;;;;5089768;28;20016;-66
2022/03/23 07:54:12;;;;;;;40.13;22.65;;;9.20;77.30;;;;;;5073963;28;20021;-66
2022/03/23 07:56:38;;;;;;;38.30;22.38;;;9.20;77.20;;;;;;5074225;28;20125;-66
2022/03/23 07:59:04;;;;;;;39.05;23.20;;;9.30;77.20;;;;;;5073985;28;20422;-66
2022/03/23 08:01:30;;;;;;;32.25;22.58;;;9.30;77.10;;;;;;5074449;28;20036;-64
2022/03/23 08:03:55;;;;;;;37.30;23.23;;;9.30;76.80;;;;;;5073723;28;20100;-65
2022/03/23 08:06:21;;;;;;;33.03;21.77;;;9.40;76.10;;;;;;5073727;28;20459;-63
2022/03/23 08:08:47;;;;;;;36.92;22.73;;;9.40;76.40;;;;;;5055727;28;20028;-64
2022/03/23 08:11:12;;;;;;;35.00;22.95;;;9.50;75.60;;;;;;5073729;28;20043;-66
2022/03/23 08:13:38;;;;;;;34.55;23.50;;;9.50;75.90;;;;;;5074704;28;20107;-67
2022/03/23 08:16:05;;;;;;;38.22;21.45;;;9.60;75.60;;;;;;5060473;28;20032;-66
2022/03/23 08:18:32;;;;;;;33.78;22.15;;;9.70;74.80;;;;;;5035693;28;20382;-66
2022/03/23 08:20:59;;;;;;;39.25;21.85;;;9.80;75.10;;;;;;5053603;28;20020;-66
2022/03/23 08:23:25;;;;;;;35.17;23.15;;;9.90;74.60;;;;;;5035921;28;20370;-65
2022/03/23 08:25:51;;;;;;;34.17;22.77;;;10.00;74.70;;;;;;5053398;28;20104;-66
2022/03/23 08:28:17;;;;;;;37.22;22.70;;;10.10;74.40;;;;;;5053765;28;20527;-63
2022/03/23 08:30:44;;;;;;;35.72;21.42;;;10.20;74.90;;;;;;5053062;28;20059;-66
2022/03/23 08:33:10;;;;;;;38.70;23.42;;;10.40;73.00;;;;;;5053409;28;20032;-66
2022/03/23 08:35:36;;;;;;;35.53;23.25;;;10.50;72.50;;;;;;5053197;28;20021;-66
2022/03/23 08:38:02;;;;;;;37.17;23.00;;;10.60;71.40;;;;;;5053269;28;20409;-67
2022/03/23 08:40:28;;;;;;;37.80;23.75;;;10.70;71.70;;;;;;5035306;28;20032;-66
2022/03/23 08:42:55;;;;;;;39.58;25.13;;;10.80;71.30;;;;;;5063204;28;20080;-66
2022/03/23 08:45:21;;;;;;;37.10;23.63;;;10.90;70.20;;;;;;5073117;28;20441;-66
2022/03/23 08:47:49;;;;;;;38.17;24.23;;;11.00;70.50;;;;;;5088295;28;20119;-67
2022/03/23 08:50:15;;;;;;;37.20;22.70;;;11.10;69.40;;;;;;5072592;28;20017;-66
2022/03/23 08:52:42;;;;;;;36.72;24.10;;;11.20;69.90;;;;;;5073010;28;20017;-64
2022/03/23 08:55:09;;;;;;;37.75;23.23;;;11.40;69.60;;;;;;5072970;28;20020;-64
2022/03/23 08:57:36;;;;;;;43.87;24.87;;;11.40;69.30;;;;;;5088274;28;20039;-66
2022/03/23 09:00:06;;;;;;;35.53;23.00;;;11.50;69.30;;;;;;5072424;28;20024;-65
2022/03/23 09:02:32;;;;;;;34.33;23.88;;;11.60;68.30;;;;;;5073226;28;20099;-65
2022/03/23 09:04:58;;;;;;;37.95;22.77;;;11.70;67.60;;;;;;5055386;28;20036;-65
2022/03/23 09:07:23;;;;;;;38.10;23.42;;;11.70;67.70;;;;;;5073253;28;20074;-66
2022/03/23 09:09:49;;;;;;;35.45;23.45;;;11.90;67.00;;;;;;5072378;28;20041;-65
2022/03/23 09:12:15;;;;;;;38.80;23.70;;;12.00;67.40;;;;;;5072970;28;20069;-65
2022/03/23 09:14:41;;;;;;;39.85;23.63;;;12.20;67.30;;;;;;5073006;28;20024;-64
2022/03/23 09:17:07;;;;;;;33.97;22.33;;;12.30;67.10;;;;;;5072517;28;20653;-65
2022/03/23 09:19:33;;;;;;;33.05;21.95;;;12.40;66.70;;;;;;5072241;28;20020;-65
2022/03/23 09:21:59;;;;;;;44.55;24.35;;;12.40;66.20;;;;;;5073139;28;20039;-64
2022/03/23 09:24:26;;;;;;;33.90;21.98;;;12.50;65.10;;;;;;5049196;28;20036;-67
2022/03/23 09:26:53;;;;;;;35.45;21.77;;;12.60;64.60;;;;;;5072419;28;20028;-64
2022/03/23 09:29:19;;;;;;;30.80;21.45;;;12.70;64.30;;;;;;5054796;28;20020;-65
2022/03/23 09:31:44;;;;;;;31.85;21.58;;;12.80;63.00;;;;;;5072064;28;20028;-63
2022/03/23 09:34:10;;;;;;;33.42;23.38;;;13.00;62.50;;;;;;5072190;28;20016;-64
2022/03/23 09:39:20;;;;;;;36.63;22.08;;;13.20;62.10;;;;;;5051839;28;20224;-64
2022/03/23 09:41:46;;;;;;;31.58;22.42;;;13.30;62.10;;;;;;5052703;28;20033;-64
2022/03/23 09:44:13;;;;;;;31.13;22.25;;;13.40;62.80;;;;;;5072153;28;20074;-64
2022/03/23 09:46:39;;;;;;;32.53;21.63;;;13.50;62.10;;;;;;5071501;28;20052;-64
2022/03/23 09:49:06;;;;;;;32.58;22.55;;;13.70;62.00;;;;;;5070282;28;20047;-64
2022/03/23 09:51:33;;;;;;;34.00;23.67;;;13.80;61.60;;;;;;5065700;28;20103;-64
2022/03/23 09:54:00;;;;;;;37.27;22.70;;;13.90;61.60;;;;;;5053907;28;20051;-63
2022/03/23 09:56:26;;;;;;;34.08;23.40;;;14.00;60.40;;;;;;5074633;28;20706;-65
2022/03/23 09:58:51;;;;;;;35.95;23.55;;;14.20;60.50;;;;;;5058005;28;20048;-65
2022/03/23 10:01:46;;;;;;;37.58;23.98;;;14.30;60.10;;;;;;5076475;28;20081;-65
2022/03/23 10:04:20;;;;;;;35.25;22.80;;;14.40;60.20;;;;;;5039275;28;20115;-65
2022/03/23 10:07:23;;;;;;;31.80;22.92;;;14.60;60.10;;;;;;5058155;28;20499;-65
2022/03/23 10:10:19;;;;;;;35.13;23.88;;;14.70;59.20;;;;;;5075428;28;20074;-65
2022/03/23 10:13:22;;;;;;;35.88;22.52;;;14.60;57.60;;;;;;5057898;28;20032;-66
2022/03/23 10:16:26;;;;;;;35.40;23.83;;;14.70;58.60;;;;;;5076261;28;20051;-64
2022/03/23 10:18:54;;;;;;;32.08;23.10;;;14.90;59.30;;;;;;5075925;28;20427;-64
2022/03/23 10:21:21;;;;;;;;;;;15.00;58.40;;;;;;5076206;28;20100;-66
2022/03/23 10:24:11;;;;;;;32.72;22.38;;;15.00;57.60;;;;;;5057605;28;20299;-67
2022/03/23 10:26:37;;;;;;;34.00;22.42;;;15.20;59.00;;;;;;5058153;28;20036;-67
2022/03/23 10:29:04;;;;;;;34.72;24.05;;;15.30;57.40;;;;;;5075802;28;20067;-67
2022/03/23 10:31:31;;;;;;;32.70;22.38;;;15.20;56.50;;;;;;5076111;28;20031;-65
2022/03/23 10:34:08;;;;;;;33.33;22.45;;;15.30;56.70;;;;;;5057810;28;20020;-66
2022/03/23 10:36:51;;;;;;;34.63;24.70;;;15.60;57.40;;;;;;5075533;28;20388;-66
2022/03/23 10:39:18;;;;;;;35.10;23.00;;;15.70;57.40;;;;;;5075455;28;20036;-66
2022/03/23 10:41:55;;;;;;;33.00;23.58;;;15.80;57.70;;;;;;5075216;28;20508;-65
2022/03/23 10:44:20;;;;;;;32.00;23.65;;;16.00;57.90;;;;;;5090290;28;20028;-65
2022/03/23 10:46:46;;;;;;;34.30;23.65;;;16.20;57.50;;;;;;5074634;28;20549;-65
2022/03/23 10:49:14;;;;;;;34.53;25.67;;;16.40;56.50;;;;;;5075357;28;20178;-66
2022/03/23 10:51:42;;;;;;;31.03;23.23;;;16.50;56.70;;;;;;5090453;28;20028;-67
2022/03/23 10:54:20;;;;;;;37.75;24.45;;;16.70;56.20;;;;;;5074454;28;20081;-66
2022/03/23 10:56:46;;;;;;;32.85;24.35;;;16.80;56.10;;;;;;5074910;28;20062;-65
2022/03/23 10:59:32;;;;;;;37.40;24.15;;;16.70;54.90;;;;;;5074665;28;20071;-66
2022/03/23 11:02:04;;;;;;;37.85;26.40;;;16.70;55.90;;;;;;5075186;28;20107;-64
2022/03/23 11:04:44;;;;;;;36.05;25.48;;;16.80;55.80;;;;;;5075108;28;20028;-67
2022/03/23 11:07:26;;;;;;;37.55;24.30;;;17.00;56.50;;;;;;5057086;28;20039;-67
2022/03/23 11:18:20;;;;;;;37.65;24.15;;;18.60;52.70;;;;;;5074290;28;20550;-66
2022/03/23 11:20:53;;;;;;;32.40;23.42;;;19.60;50.70;;;;;;5074689;28;20656;-66
2022/03/23 11:23:30;;;;;;;30.75;23.02;;;20.40;49.50;;;;;;5074642;28;20099;-66
2022/03/23 11:26:01;;;;;;;33.45;24.48;;;21.50;49.40;;;;;;5074422;28;20035;-67
2022/03/23 11:28:36;;;;;;;35.83;25.40;;;21.90;47.60;;;;;;5073515;28;20029;-66
2022/03/23 11:31:08;;;;;;;32.10;25.10;;;22.10;47.10;;;;;;5073679;28;20047;-66
2022/03/23 11:33:34;;;;;;;35.42;25.33;;;22.30;45.70;;;;;;5074344;28;20049;-66
2022/03/23 11:36:01;;;;;;;36.92;25.55;;;22.50;46.30;;;;;;5073777;28;20522;-66
2022/03/23 11:38:27;;;;;;;35.40;27.80;;;23.20;45.80;;;;;;5089747;28;20020;-67
2022/03/23 11:40:54;;;;;;;35.72;26.77;;;23.40;44.70;;;;;;5073662;28;20017;-67
2022/03/23 11:43:24;;;;;;;37.55;26.83;;;24.10;43.70;;;;;;5073410;28;20020;-68
2022/03/23 11:45:52;;;;;;;34.60;27.98;;;23.80;43.70;;;;;;5072832;28;20021;-68
2022/03/23 11:48:49;;;;;;;33.33;26.33;;;24.20;43.60;;;;;;5073407;28;20049;-67
2022/03/23 11:51:36;;;;;;;35.80;27.50;;;24.60;42.90;;;;;;5073645;28;20016;-67
2022/03/23 11:54:28;;;;;;;33.38;27.15;;;24.50;43.10;;;;;;5073346;28;20032;-67
2022/03/23 11:56:56;;;;;;;34.17;28.13;;;24.60;43.40;;;;;;5073038;28;20046;-68
2022/03/23 11:59:29;;;;;;;32.28;26.77;;;25.90;42.30;;;;;;5072941;28;20048;-67
2022/03/23 12:01:57;;;;;;;33.50;28.38;;;25.80;41.80;;;;;;5073048;28;20032;-67
2022/03/23 12:04:25;;;;;;;33.60;27.27;;;25.50;41.90;;;;;;5088906;28;20032;-66
2022/03/23 12:07:02;;;;;;;32.60;27.02;;;25.90;40.80;;;;;;5073656;28;20098;-67
2022/03/23 12:09:41;;;;;;;33.28;27.02;;;26.10;40.90;;;;;;5073283;28;20043;-66
2022/03/23 12:12:27;;;;;;;33.25;26.88;;;26.60;40.70;;;;;;5088945;28;20047;-67
2022/03/23 12:15:25;;;;;;;34.20;26.27;;;26.40;40.60;;;;;;5073230;28;20032;-67
2022/03/23 12:17:56;;;;;;;31.13;26.02;;;26.90;39.70;;;;;;5073416;28;20029;-65
2022/03/23 12:20:33;;;;;;;32.08;25.88;;;27.70;38.00;;;;;;5072655;28;20128;-66
2022/03/23 12:23:16;;;;;;;30.08;25.15;;;27.70;38.20;;;;;;5072794;28;20035;-66
2022/03/23 12:26:12;;;;;;;31.58;25.77;;;26.60;37.30;;;;;;5073125;28;20032;-66
2022/03/23 12:29:10;;;;;;;31.63;26.35;;;26.60;37.70;;;;;;5073157;28;20054;-64
2022/03/23 12:31:37;;;;;;;;;;;26.00;38.40;;;;;;5017894;28;20166;-66
2022/03/23 12:34:12;;;;;;;31.60;25.75;;;25.90;39.60;;;;;;5073273;28;19905;-67
2022/03/23 12:39:46;;;;;;;31.02;26.05;;;26.90;37.80;;;;;;5071921;28;20047;-66
2022/03/23 12:42:12;;;;;;;29.33;26.08;;;28.20;37.40;;;;;;5073180;28;20016;-66
2022/03/23 12:44:40;;;;;;;32.88;26.83;;;28.60;36.90;;;;;;5072856;28;20025;-66
2022/03/23 12:47:30;;;;;;;31.23;25.17;;;27.80;36.60;;;;;;5088209;28;20035;-64
2022/03/23 12:58:36;;;;;;;33.20;26.38;;;25.50;38.40;;;;;;5073330;28;20027;-67
2022/03/23 13:01:16;;;;;;;31.27;25.17;;;25.80;38.50;;;;;;5072375;28;20025;-67
2022/03/23 13:03:45;;;;;;;29.40;25.10;;;26.10;37.80;;;;;;5072297;28;20024;-67
2022/03/23 13:06:12;;;;;;;;;;;27.20;37.40;;;;;;5074871;28;20438;-67
2022/03/23 13:08:47;;;;;;;28.23;24.30;;;27.20;36.40;;;;;;5056973;28;19912;-67
2022/03/23 13:11:21;;;;;;;30.27;24.33;;;27.00;36.30;;;;;;5072579;28;20064;-67
2022/03/23 13:13:53;;;;;;;32.35;26.75;;;26.80;36.70;;;;;;5072867;28;20581;-67
2022/03/23 13:16:20;;;;;;;33.00;27.02;;;26.80;36.80;;;;;;5073332;28;20031;-67
2022/03/23 13:18:46;;;;;;;31.77;25.98;;;27.50;37.00;;;;;;5073577;28;20025;-67